sensor_id;sensor_type;location;lat;lon;timestamp;pressure;altitude;pressure_sealevel;temperature;humidity
57594;BME280;43423;46.510;6.686;2022-12-24T00:00:32;96478.78;;;10.61;100.00
57594;BME280;43423;46.510;6.686;2022-12-24T00:03:16;96488.88;;;10.34;100.00
57594;BME280;43423;46.510;6.686;2022-12-24T00:05:42;96487.19;;;10.22;100.00
57594;BME280;43423;46.510;6.686;2022-12-24T00:08:07;96504.22;;;10.26;100.00
57594;BME280;43423;46.510;6.686;2022-12-24T00:10:33;96477.41;;;10.21;100.00
57594;BME280;43423;46.510;6.686;2022-12-24T00:12:59;96483.97;;;10.24;100.00
57594;BME280;43423;46.510;6.686;2022-12-24T00:15:25;96481.69;;;10.22;100.00
57594;BME280;43423;46.510;6.686;2022-12-24T00:17:50;96463.41;;;10.19;100.00
57594;BME280;43423;46.510;6.686;2022-12-24T00:20:16;96460.91;;;10.21;100.00
57594;BME280;43423;46.510;6.686;2022-12-24T00:22:42;96471.91;;;10.21;100.00
57594;BME280;43423;46.510;6.686;2022-12-24T00:25:08;96465.84;;;10.17;100.00
57594;BME280;43423;46.510;6.686;2022-12-24T00:27:33;96463.19;;;10.08;100.00
57594;BME280;43423;46.510;6.686;2022-12-24T00:30:00;96491.53;;;10.14;100.00
57594;BME280;43423;46.510;6.686;2022-12-24T00:32:26;96496.81;;;10.18;100.00
57594;BME280;43423;46.510;6.686;2022-12-24T00:34:52;96488.19;;;10.10;100.00
57594;BME280;43423;46.510;6.686;2022-12-24T00:37:17;96493.63;;;10.19;100.00
57594;BME280;43423;46.510;6.686;2022-12-24T00:39:43;96477.13;;;10.19;100.00
57594;BME280;43423;46.510;6.686;2022-12-24T00:42:09;96474.28;;;10.14;100.00
57594;BME280;43423;46.510;6.686;2022-12-24T00:44:35;96483.84;;;10.18;100.00
57594;BME280;43423;46.510;6.686;2022-12-24T00:47:00;96461.47;;;10.11;100.00
57594;BME280;43423;46.510;6.686;2022-12-24T00:49:26;96470.22;;;10.24;100.00
57594;BME280;43423;46.510;6.686;2022-12-24T00:51:51;96463.78;;;10.27;100.00
57594;BME280;43423;46.510;6.686;2022-12-24T00:54:17;96469.56;;;10.29;100.00
57594;BME280;43423;46.510;6.686;2022-12-24T00:56:43;96474.59;;;10.30;100.00
57594;BME280;43423;46.510;6.686;2022-12-24T00:59:09;96471.34;;;10.32;100.00
57594;BME280;43423;46.510;6.686;2022-12-24T01:01:34;96479.69;;;10.38;100.00
57594;BME280;43423;46.510;6.686;2022-12-24T01:04:01;96486.34;;;10.31;100.00
57594;BME280;43423;46.510;6.686;2022-12-24T01:06:45;96500.25;;;10.13;100.00
57594;BME280;43423;46.510;6.686;2022-12-24T01:09:11;96505.91;;;10.09;100.00
57594;BME280;43423;46.510;6.686;2022-12-24T01:11:37;96504.88;;;10.06;100.00
57594;BME280;43423;46.510;6.686;2022-12-24T01:14:02;96492.56;;;10.02;100.00
57594;BME280;43423;46.510;6.686;2022-12-24T01:16:28;96514.16;;;10.09;100.00
57594;BME280;43423;46.510;6.686;2022-12-24T01:18:54;96511.13;;;10.07;100.00
57594;BME280;43423;46.510;6.686;2022-12-24T01:21:19;96503.47;;;10.11;100.00
57594;BME280;43423;46.510;6.686;2022-12-24T01:23:45;96498.63;;;10.06;100.00
57594;BME280;43423;46.510;6.686;2022-12-24T01:26:11;96498.16;;;10.07;100.00
57594;BME280;43423;46.510;6.686;2022-12-24T01:28:37;96491.91;;;10.07;100.00
57594;BME280;43423;46.510;6.686;2022-12-24T01:31:15;96494.00;;;10.12;100.00
57594;BME280;43423;46.510;6.686;2022-12-24T01:33:44;96509.25;;;10.13;100.00
57594;BME280;43423;46.510;6.686;2022-12-24T01:36:11;96514.06;;;10.18;100.00
57594;BME280;43423;46.510;6.686;2022-12-24T01:38:37;96512.75;;;10.14;100.00
57594;BME280;43423;46.510;6.686;2022-12-24T01:41:03;96523.06;;;10.19;100.00
57594;BME280;43423;46.510;6.686;2022-12-24T01:43:48;96531.97;;;10.14;100.00
57594;BME280;43423;46.510;6.686;2022-12-24T01:48:48;96541.16;;;9.96;100.00
57594;BME280;43423;46.510;6.686;2022-12-24T01:51:27;96555.28;;;9.89;100.00
57594;BME280;43423;46.510;6.686;2022-12-24T01:54:10;96539.06;;;9.91;100.00
57594;BME280;43423;46.510;6.686;2022-12-24T01:56:43;96537.66;;;9.81;100.00
57594;BME280;43423;46.510;6.686;2022-12-24T01:59:11;96549.28;;;9.75;100.00
57594;BME280;43423;46.510;6.686;2022-12-24T02:01:38;96548.91;;;9.83;100.00
57594;BME280;43423;46.510;6.686;2022-12-24T02:06:48;96573.81;;;9.94;100.00
57594;BME280;43423;46.510;6.686;2022-12-24T02:09:14;96555.28;;;9.89;100.00
57594;BME280;43423;46.510;6.686;2022-12-24T02:11:40;96548.06;;;9.91;100.00
57594;BME280;43423;46.510;6.686;2022-12-24T02:14:09;96557.34;;;9.94;100.00
57594;BME280;43423;46.510;6.686;2022-12-24T02:22:16;96543.63;;;10.08;100.00
57594;BME280;43423;46.510;6.686;2022-12-24T02:35:34;96539.84;;;10.06;100.00
57594;BME280;43423;46.510;6.686;2022-12-24T02:40:44;96549.78;;;10.03;100.00
57594;BME280;43423;46.510;6.686;2022-12-24T02:43:15;96548.84;;;10.06;100.00
57594;BME280;43423;46.510;6.686;2022-12-24T02:45:45;96557.25;;;10.03;100.00
57594;BME280;43423;46.510;6.686;2022-12-24T02:48:13;96555.09;;;10.07;100.00
57594;BME280;43423;46.510;6.686;2022-12-24T02:50:57;96539.66;;;10.10;100.00
57594;BME280;43423;46.510;6.686;2022-12-24T02:53:23;96527.25;;;10.14;100.00
57594;BME280;43423;46.510;6.686;2022-12-24T03:04:15;96548.47;;;10.14;100.00
57594;BME280;43423;46.510;6.686;2022-12-24T03:09:26;96548.09;;;10.06;100.00
57594;BME280;43423;46.510;6.686;2022-12-24T03:11:57;96540.13;;;10.08;100.00
57594;BME280;43423;46.510;6.686;2022-12-24T03:14:24;96539.38;;;10.07;100.00
57594;BME280;43423;46.510;6.686;2022-12-24T03:16:51;96537.97;;;10.12;100.00
57594;BME280;43423;46.510;6.686;2022-12-24T03:19:17;96531.97;;;10.14;100.00
57594;BME280;43423;46.510;6.686;2022-12-24T03:21:46;96533.69;;;10.11;100.00
57594;BME280;43423;46.510;6.686;2022-12-24T03:24:12;96527.34;;;10.05;100.00
57594;BME280;43423;46.510;6.686;2022-12-24T03:26:38;96532.53;;;10.03;100.00
57594;BME280;43423;46.510;6.686;2022-12-24T03:29:06;96531.78;;;10.02;100.00
57594;BME280;43423;46.510;6.686;2022-12-24T03:31:45;96525.06;;;10.03;100.00
57594;BME280;43423;46.510;6.686;2022-12-24T03:34:12;96524.28;;;10.03;100.00
57594;BME280;43423;46.510;6.686;2022-12-24T03:36:38;96517.75;;;10.00;100.00
57594;BME280;43423;46.510;6.686;2022-12-24T03:39:05;96517.00;;;10.00;100.00
57594;BME280;43423;46.510;6.686;2022-12-24T03:41:31;96513.50;;;9.99;100.00
57594;BME280;43423;46.510;6.686;2022-12-24T03:43:57;96513.97;;;9.98;100.00
57594;BME280;43423;46.510;6.686;2022-12-24T03:46:23;96524.97;;;9.98;100.00
57594;BME280;43423;46.510;6.686;2022-12-24T03:48:49;96530.75;;;10.00;100.00
57594;BME280;43423;46.510;6.686;2022-12-24T03:51:22;96539.56;;;10.04;100.00
57594;BME280;43423;46.510;6.686;2022-12-24T03:53:51;96533.84;;;9.93;100.00
57594;BME280;43423;46.510;6.686;2022-12-24T03:56:18;96534.53;;;9.88;100.00
57594;BME280;43423;46.510;6.686;2022-12-24T03:58:43;96540.22;;;9.99;100.00
57594;BME280;43423;46.510;6.686;2022-12-24T04:01:09;96535.84;;;9.92;100.00
57594;BME280;43423;46.510;6.686;2022-12-24T04:03:35;96531.78;;;9.88;100.00
57594;BME280;43423;46.510;6.686;2022-12-24T04:06:02;96545.59;;;9.93;100.00
57594;BME280;43423;46.510;6.686;2022-12-24T04:08:28;96543.34;;;9.92;100.00
57594;BME280;43423;46.510;6.686;2022-12-24T04:10:54;96533.84;;;9.93;100.00
57594;BME280;43423;46.510;6.686;2022-12-24T04:13:19;96525.06;;;9.89;100.00
57594;BME280;43423;46.510;6.686;2022-12-24T04:15:55;96513.00;;;9.86;100.00
57594;BME280;43423;46.510;6.686;2022-12-24T04:18:21;96520.22;;;9.84;100.00
57594;BME280;43423;46.510;6.686;2022-12-24T04:20:47;96547.47;;;9.87;100.00
57594;BME280;43423;46.510;6.686;2022-12-24T04:23:12;96539.31;;;9.78;100.00
57594;BME280;43423;46.510;6.686;2022-12-24T04:25:38;96544.06;;;9.77;100.00
57594;BME280;43423;46.510;6.686;2022-12-24T04:28:03;96538.41;;;9.81;100.00
57594;BME280;43423;46.510;6.686;2022-12-24T04:30:29;96529.41;;;9.81;100.00
57594;BME280;43423;46.510;6.686;2022-12-24T04:32:55;96529.09;;;9.78;100.00
57594;BME280;43423;46.510;6.686;2022-12-24T04:35:20;96547.13;;;9.79;100.00
57594;BME280;43423;46.510;6.686;2022-12-24T04:37:46;96542.53;;;9.76;100.00
57594;BME280;43423;46.510;6.686;2022-12-24T04:40:12;96550.13;;;9.82;100.00
57594;BME280;43423;46.510;6.686;2022-12-24T04:42:37;96528.81;;;9.76;100.00
57594;BME280;43423;46.510;6.686;2022-12-24T04:45:03;96531.28;;;9.74;100.00
57594;BME280;43423;46.510;6.686;2022-12-24T04:47:29;96525.50;;;9.72;100.00
57594;BME280;43423;46.510;6.686;2022-12-24T04:49:55;96527.59;;;9.77;100.00
57594;BME280;43423;46.510;6.686;2022-12-24T04:52:20;96514.81;;;9.74;100.00
57594;BME280;43423;46.510;6.686;2022-12-24T04:54:47;96522.75;;;9.72;100.00
57594;BME280;43423;46.510;6.686;2022-12-24T04:57:13;96517.56;;;9.74;100.00
57594;BME280;43423;46.510;6.686;2022-12-24T04:59:38;96524.38;;;9.79;100.00
57594;BME280;43423;46.510;6.686;2022-12-24T05:02:04;96516.44;;;9.81;100.00
57594;BME280;43423;46.510;6.686;2022-12-24T05:04:30;96515.72;;;9.71;100.00
57594;BME280;43423;46.510;6.686;2022-12-24T05:06:56;96527.22;;;9.85;100.00
57594;BME280;43423;46.510;6.686;2022-12-24T05:09:22;96528.44;;;9.84;100.00
57594;BME280;43423;46.510;6.686;2022-12-24T05:11:47;96526.94;;;9.83;100.00
57594;BME280;43423;46.510;6.686;2022-12-24T05:14:13;96535.72;;;9.87;100.00
57594;BME280;43423;46.510;6.686;2022-12-24T05:16:38;96533.75;;;9.87;100.00
57594;BME280;43423;46.510;6.686;2022-12-24T05:19:04;96531.59;;;9.91;100.00
57594;BME280;43423;46.510;6.686;2022-12-24T05:21:30;96524.31;;;9.88;100.00
57594;BME280;43423;46.510;6.686;2022-12-24T05:23:56;96517.94;;;9.82;100.00
57594;BME280;43423;46.510;6.686;2022-12-24T05:26:50;96535.72;;;9.87;100.00
57594;BME280;43423;46.510;6.686;2022-12-24T05:29:18;96540.94;;;9.85;100.00
57594;BME280;43423;46.510;6.686;2022-12-24T05:31:44;96531.78;;;9.88;100.00
57594;BME280;43423;46.510;6.686;2022-12-24T05:34:11;96546.72;;;9.87;100.00
57594;BME280;43423;46.510;6.686;2022-12-24T05:36:37;96544.44;;;9.85;100.00
57594;BME280;43423;46.510;6.686;2022-12-24T05:39:04;96547.31;;;9.91;100.00
57594;BME280;43423;46.510;6.686;2022-12-24T05:41:30;96544.28;;;9.89;100.00
57594;BME280;43423;46.510;6.686;2022-12-24T05:43:56;96539.72;;;9.86;100.00
57594;BME280;43423;46.510;6.686;2022-12-24T05:46:23;96551.28;;;9.90;100.00
57594;BME280;43423;46.510;6.686;2022-12-24T05:48:51;96552.81;;;9.91;100.00
57594;BME280;43423;46.510;6.686;2022-12-24T05:51:21;96556.50;;;9.88;100.00
57594;BME280;43423;46.510;6.686;2022-12-24T05:53:49;96553.16;;;9.84;100.00
57594;BME280;43423;46.510;6.686;2022-12-24T05:56:19;96553.75;;;9.88;100.00
57594;BME280;43423;46.510;6.686;2022-12-24T05:58:45;96551.66;;;9.83;100.00
57594;BME280;43423;46.510;6.686;2022-12-24T06:01:12;96558.03;;;9.89;100.00
57594;BME280;43423;46.510;6.686;2022-12-24T06:03:38;96551.66;;;9.83;100.00
57594;BME280;43423;46.510;6.686;2022-12-24T06:06:05;96567.94;;;9.86;100.00
57594;BME280;43423;46.510;6.686;2022-12-24T06:08:32;96571.28;;;9.90;100.00
57594;BME280;43423;46.510;6.686;2022-12-24T06:11:00;96571.75;;;9.89;100.00
57594;BME280;43423;46.510;6.686;2022-12-24T06:13:26;96573.91;;;9.85;100.00
57594;BME280;43423;46.510;6.686;2022-12-24T06:15:56;96564.78;;;9.78;100.00
57594;BME280;43423;46.510;6.686;2022-12-24T06:18:22;96558.84;;;9.80;100.00
57594;BME280;43423;46.510;6.686;2022-12-24T06:20:50;96546.63;;;9.81;100.00
57594;BME280;43423;46.510;6.686;2022-12-24T06:23:16;96548.03;;;9.76;100.00
57594;BME280;43423;46.510;6.686;2022-12-24T06:25:42;96576.09;;;9.81;100.00
57594;BME280;43423;46.510;6.686;2022-12-24T06:28:07;96572.66;;;9.86;100.00
57594;BME280;43423;46.510;6.686;2022-12-24T06:30:33;96569.94;;;9.86;100.00
57594;BME280;43423;46.510;6.686;2022-12-24T06:32:59;96581.78;;;9.92;100.00
57594;BME280;43423;46.510;6.686;2022-12-24T06:35:24;96581.78;;;9.92;100.00
57594;BME280;43423;46.510;6.686;2022-12-24T06:37:50;96583.00;;;9.91;100.00
57594;BME280;43423;46.510;6.686;2022-12-24T06:40:15;96589.75;;;9.90;100.00
57594;BME280;43423;46.510;6.686;2022-12-24T06:42:41;96604.22;;;9.90;100.00
57594;BME280;43423;46.510;6.686;2022-12-24T06:45:07;96591.63;;;9.84;100.00
57594;BME280;43423;46.510;6.686;2022-12-24T06:47:33;96586.41;;;9.86;100.00
57594;BME280;43423;46.510;6.686;2022-12-24T06:49:59;96587.00;;;9.90;100.00
57594;BME280;43423;46.510;6.686;2022-12-24T06:52:24;96586.31;;;9.95;100.00
57594;BME280;43423;46.510;6.686;2022-12-24T06:54:50;96575.06;;;9.93;100.00
57594;BME280;43423;46.510;6.686;2022-12-24T06:57:16;96554.16;;;9.71;100.00
57594;BME280;43423;46.510;6.686;2022-12-24T06:59:42;96551.06;;;9.78;100.00
57594;BME280;43423;46.510;6.686;2022-12-24T07:02:08;96561.53;;;9.89;100.00
57594;BME280;43423;46.510;6.686;2022-12-24T07:04:34;96563.03;;;9.90;100.00
57594;BME280;43423;46.510;6.686;2022-12-24T07:07:00;96545.78;;;9.75;100.00
57594;BME280;43423;46.510;6.686;2022-12-24T07:09:26;96566.63;;;9.82;100.00
57594;BME280;43423;46.510;6.686;2022-12-24T07:11:52;96572.88;;;9.82;100.00
57594;BME280;43423;46.510;6.686;2022-12-24T07:14:17;96571.25;;;9.75;100.00
57594;BME280;43423;46.510;6.686;2022-12-24T07:16:43;96585.19;;;9.63;100.00
57594;BME280;43423;46.510;6.686;2022-12-24T07:19:09;96590.13;;;9.59;100.00
57594;BME280;43423;46.510;6.686;2022-12-24T07:21:35;96589.50;;;9.64;100.00
57594;BME280;43423;46.510;6.686;2022-12-24T07:24:00;96587.50;;;9.64;100.00
57594;BME280;43423;46.510;6.686;2022-12-24T07:26:26;96579.28;;;9.64;100.00
57594;BME280;43423;46.510;6.686;2022-12-24T07:28:52;96578.03;;;9.65;100.00
57594;BME280;43423;46.510;6.686;2022-12-24T07:31:18;96589.50;;;9.64;100.00
57594;BME280;43423;46.510;6.686;2022-12-24T07:33:44;96580.03;;;9.65;100.00
57594;BME280;43423;46.510;6.686;2022-12-24T07:36:16;96589.50;;;9.64;100.00
57594;BME280;43423;46.510;6.686;2022-12-24T07:38:42;96573.38;;;9.57;100.00
57594;BME280;43423;46.510;6.686;2022-12-24T07:41:08;96573.47;;;9.62;100.00
57594;BME280;43423;46.510;6.686;2022-12-24T07:43:34;96565.72;;;9.61;100.00
57594;BME280;43423;46.510;6.686;2022-12-24T07:46:00;96555.94;;;9.60;100.00
57594;BME280;43423;46.510;6.686;2022-12-24T07:48:27;96566.66;;;9.58;100.00
57594;BME280;43423;46.510;6.686;2022-12-24T07:50:54;96588.06;;;9.68;100.00
57594;BME280;43423;46.510;6.686;2022-12-24T07:53:20;96592.31;;;9.69;100.00
57594;BME280;43423;46.510;6.686;2022-12-24T07:55:46;96595.06;;;9.69;100.00
57594;BME280;43423;46.510;6.686;2022-12-24T07:58:11;96573.94;;;9.61;100.00
57594;BME280;43423;46.510;6.686;2022-12-24T08:00:38;96580.31;;;9.67;100.00
57594;BME280;43423;46.510;6.686;2022-12-24T08:03:04;96579.06;;;9.68;100.00
57594;BME280;43423;46.510;6.686;2022-12-24T08:05:35;96585.91;;;9.72;100.00
57594;BME280;43423;46.510;6.686;2022-12-24T08:08:01;96591.50;;;9.78;100.00
57594;BME280;43423;46.510;6.686;2022-12-24T08:10:26;96599.56;;;9.82;100.00
57594;BME280;43423;46.510;6.686;2022-12-24T08:12:52;96600.13;;;9.86;100.00
57594;BME280;43423;46.510;6.686;2022-12-24T08:15:18;96601.97;;;9.89;100.00
57594;BME280;43423;46.510;6.686;2022-12-24T08:17:44;96601.09;;;9.83;100.00
57594;BME280;43423;46.510;6.686;2022-12-24T08:20:10;96609.31;;;9.83;100.00
57594;BME280;43423;46.510;6.686;2022-12-24T08:22:36;96615.38;;;9.87;100.00
57594;BME280;43423;46.510;6.686;2022-12-24T08:25:02;96610.28;;;9.79;100.00
57594;BME280;43423;46.510;6.686;2022-12-24T08:27:28;96618.13;;;9.87;100.00
57594;BME280;43423;46.510;6.686;2022-12-24T08:29:54;96610.28;;;9.79;100.00
57594;BME280;43423;46.510;6.686;2022-12-24T08:32:19;96628.34;;;9.86;100.00
57594;BME280;43423;46.510;6.686;2022-12-24T08:34:45;96601.09;;;9.83;100.00
57594;BME280;43423;46.510;6.686;2022-12-24T08:37:11;96608.72;;;9.78;100.00
57594;BME280;43423;46.510;6.686;2022-12-24T08:39:36;96612.72;;;9.77;100.00
57594;BME280;43423;46.510;6.686;2022-12-24T08:42:02;96614.22;;;9.78;100.00
57594;BME280;43423;46.510;6.686;2022-12-24T08:44:28;96607.53;;;9.79;100.00
57594;BME280;43423;46.510;6.686;2022-12-24T08:46:53;96614.94;;;9.88;100.00
57594;BME280;43423;46.510;6.686;2022-12-24T08:49:19;96615.69;;;9.89;100.00
57594;BME280;43423;46.510;6.686;2022-12-24T08:51:45;96620.44;;;9.88;100.00
57594;BME280;43423;46.510;6.686;2022-12-24T08:54:10;96619.00;;;9.93;100.00
57594;BME280;43423;46.510;6.686;2022-12-24T08:56:36;96632.38;;;10.00;100.00
57594;BME280;43423;46.510;6.686;2022-12-24T08:59:02;96615.91;;;10.00;100.00
57594;BME280;43423;46.510;6.686;2022-12-24T09:01:27;96630.09;;;9.98;100.00
57594;BME280;43423;46.510;6.686;2022-12-24T09:03:53;96626.13;;;9.99;100.00
57594;BME280;43423;46.510;6.686;2022-12-24T09:06:19;96618.38;;;9.98;100.00
57594;BME280;43423;46.510;6.686;2022-12-24T09:08:45;96605.88;;;9.97;100.00
57594;BME280;43423;46.510;6.686;2022-12-24T09:11:15;96621.09;;;9.98;100.00
57594;BME280;43423;46.510;6.686;2022-12-24T09:13:42;96601.66;;;9.87;100.00
57594;BME280;43423;46.510;6.686;2022-12-24T09:16:08;96612.88;;;9.98;100.00
57594;BME280;43423;46.510;6.686;2022-12-24T09:18:34;96609.09;;;9.95;100.00
57594;BME280;43423;46.510;6.686;2022-12-24T09:21:01;96611.81;;;9.95;100.00
57594;BME280;43423;46.510;6.686;2022-12-24T09:23:28;96614.75;;;9.92;100.00
57594;BME280;43423;46.510;6.686;2022-12-24T09:25:54;96613.88;;;9.86;100.00
57594;BME280;43423;46.510;6.686;2022-12-24T09:28:20;96631.09;;;9.86;100.00
57594;BME280;43423;46.510;6.686;2022-12-24T09:30:55;96625.31;;;9.84;100.00
57594;BME280;43423;46.510;6.686;2022-12-24T09:33:21;96635.47;;;9.93;100.00
57594;BME280;43423;46.510;6.686;2022-12-24T09:35:49;96629.91;;;10.02;100.00
57594;BME280;43423;46.510;6.686;2022-12-24T09:38:15;96619.22;;;10.04;100.00
57594;BME280;43423;46.510;6.686;2022-12-24T09:40:41;96617.50;;;9.92;100.00
57594;BME280;43423;46.510;6.686;2022-12-24T09:43:17;96620.59;;;9.85;100.00
57594;BME280;43423;46.510;6.686;2022-12-24T09:48:48;96621.22;;;10.03;100.00
57594;BME280;43423;46.510;6.686;2022-12-24T09:51:33;96629.75;;;10.05;100.00
57594;BME280;43423;46.510;6.686;2022-12-24T09:56:46;96636.91;;;10.03;100.00
57594;BME280;43423;46.510;6.686;2022-12-24T09:59:17;96631.44;;;10.03;100.00
57594;BME280;43423;46.510;6.686;2022-12-24T10:01:45;96633.41;;;10.02;100.00
57594;BME280;43423;46.510;6.686;2022-12-24T10:04:13;96644.13;;;10.00;100.00
57594;BME280;43423;46.510;6.686;2022-12-24T10:09:45;96625.00;;;10.06;100.00
57594;BME280;43423;46.510;6.686;2022-12-24T10:21:03;96629.56;;;10.09;100.00
57594;BME280;43423;46.510;6.686;2022-12-24T10:23:42;96626.91;;;10.15;100.00
57594;BME280;43423;46.510;6.686;2022-12-24T10:26:19;96629.47;;;10.18;100.00
57594;BME280;43423;46.510;6.686;2022-12-24T10:28:52;96616.69;;;10.15;100.00
57594;BME280;43423;46.510;6.686;2022-12-24T10:31:25;96609.44;;;10.03;100.00
57594;BME280;43423;46.510;6.686;2022-12-24T10:33:58;96592.53;;;10.19;100.00
57594;BME280;43423;46.510;6.686;2022-12-24T10:36:29;96545.59;;;9.93;100.00
57594;BME280;43423;46.510;6.686;2022-12-24T10:38:57;96566.00;;;10.16;100.00
57594;BME280;43423;46.510;6.686;2022-12-24T10:41:27;96555.28;;;10.18;100.00
57594;BME280;43423;46.510;6.686;2022-12-24T10:43:55;96565.00;;;10.28;100.00
57594;BME280;43423;46.510;6.686;2022-12-24T10:46:37;96604.03;;;10.62;100.00
57594;BME280;43423;46.510;6.686;2022-12-24T10:49:10;96602.69;;;10.57;100.00
57594;BME280;43423;46.510;6.686;2022-12-24T10:51:49;96564.25;;;10.28;99.70
57594;BME280;43423;46.510;6.686;2022-12-24T10:54:19;96602.53;;;10.61;100.00
57594;BME280;43423;46.510;6.686;2022-12-24T10:56:50;96588.88;;;10.52;100.00
57594;BME280;43423;46.510;6.686;2022-12-24T10:59:30;96609.16;;;10.69;100.00
57594;BME280;43423;46.510;6.686;2022-12-24T11:01:57;96539.56;;;10.19;100.00
57594;BME280;43423;46.510;6.686;2022-12-24T11:04:27;96622.31;;;10.65;99.47
57594;BME280;43423;46.510;6.686;2022-12-24T11:06:59;96555.53;;;10.29;98.97
57594;BME280;43423;46.510;6.686;2022-12-24T11:09:28;96540.44;;;10.25;100.00
57594;BME280;43423;46.510;6.686;2022-12-24T11:11:56;96599.09;;;10.66;99.91
57594;BME280;43423;46.510;6.686;2022-12-24T11:14:23;96536.75;;;10.28;100.00
57594;BME280;43423;46.510;6.686;2022-12-24T11:16:54;96553.81;;;10.32;100.00
57594;BME280;43423;46.510;6.686;2022-12-24T11:19:29;96507.75;;;10.12;100.00
57594;BME280;43423;46.510;6.686;2022-12-24T11:22:02;96537.59;;;10.34;100.00
57594;BME280;43423;46.510;6.686;2022-12-24T11:24:31;96516.34;;;10.20;100.00
57594;BME280;43423;46.510;6.686;2022-12-24T11:32:48;96507.28;;;10.28;100.00
57594;BME280;43423;46.510;6.686;2022-12-24T11:35:22;96506.44;;;10.22;100.00
57594;BME280;43423;46.510;6.686;2022-12-24T11:38:09;96499.03;;;10.28;100.00
57594;BME280;43423;46.510;6.686;2022-12-24T11:40:59;96566.78;;;10.61;100.00
57594;BME280;43423;46.510;6.686;2022-12-24T11:43:27;96529.06;;;10.32;100.00
57594;BME280;43423;46.510;6.686;2022-12-24T11:49:21;96545.44;;;10.41;100.00
57594;BME280;43423;46.510;6.686;2022-12-24T11:52:23;96580.31;;;10.79;100.00
57594;BME280;43423;46.510;6.686;2022-12-24T11:57:43;96573.06;;;10.97;100.00
57594;BME280;43423;46.510;6.686;2022-12-24T12:00:12;96520.31;;;10.63;100.00
57594;BME280;43423;46.510;6.686;2022-12-24T12:02:40;96579.41;;;11.03;100.00
57594;BME280;43423;46.510;6.686;2022-12-24T12:05:16;96581.19;;;11.06;100.00
57594;BME280;43423;46.510;6.686;2022-12-24T12:07:52;96582.53;;;11.10;100.00
57594;BME280;43423;46.510;6.686;2022-12-24T12:10:31;96579.84;;;11.16;100.00
57594;BME280;43423;46.510;6.686;2022-12-24T12:13:01;96581.19;;;11.06;99.19
57594;BME280;43423;46.510;6.686;2022-12-24T12:15:38;96573.63;;;11.01;100.00
57594;BME280;43423;46.510;6.686;2022-12-24T12:18:09;96575.41;;;11.04;100.00
57594;BME280;43423;46.510;6.686;2022-12-24T12:20:57;96581.56;;;11.13;100.00
57594;BME280;43423;46.510;6.686;2022-12-24T12:24:03;96571.13;;;11.17;100.00
57594;BME280;43423;46.510;6.686;2022-12-24T12:26:28;96569.22;;;11.24;100.00
57594;BME280;43423;46.510;6.686;2022-12-24T12:29:56;96559.31;;;11.32;100.00
57594;BME280;43423;46.510;6.686;2022-12-24T12:31:56;96551.53;;;11.30;100.00
57594;BME280;43423;46.510;6.686;2022-12-24T12:34:34;96550.78;;;11.30;100.00
57594;BME280;43423;46.510;6.686;2022-12-24T12:37:10;96530.25;;;11.10;100.00
57594;BME280;43423;46.510;6.686;2022-12-24T12:39:37;96541.81;;;11.14;100.00
57594;BME280;43423;46.510;6.686;2022-12-24T12:44:56;96552.06;;;11.14;100.00
57594;BME280;43423;46.510;6.686;2022-12-24T12:48:33;96546.44;;;11.23;100.00
57594;BME280;43423;46.510;6.686;2022-12-24T12:54:27;96545.94;;;11.25;99.36
57594;BME280;43423;46.510;6.686;2022-12-24T12:57:02;96537.47;;;11.28;100.00
57594;BME280;43423;46.510;6.686;2022-12-24T12:59:38;96537.34;;;11.17;97.66
57594;BME280;43423;46.510;6.686;2022-12-24T13:11:05;96551.66;;;11.41;95.42
57594;BME280;43423;46.510;6.686;2022-12-24T13:16:37;96534.38;;;11.41;95.07
57594;BME280;43423;46.510;6.686;2022-12-24T13:19:24;96543.81;;;11.14;99.89
57594;BME280;43423;46.510;6.686;2022-12-24T13:21:55;96541.00;;;10.94;100.00
57594;BME280;43423;46.510;6.686;2022-12-24T13:24:23;96551.81;;;10.97;100.00
57594;BME280;43423;46.510;6.686;2022-12-24T13:27:01;96538.50;;;10.75;100.00
57594;BME280;43423;46.510;6.686;2022-12-24T13:29:39;96540.28;;;10.78;100.00
57594;BME280;43423;46.510;6.686;2022-12-24T13:34:50;96537.09;;;10.65;100.00
57594;BME280;43423;46.510;6.686;2022-12-24T13:43:05;96537.25;;;10.91;99.82
57594;BME280;43423;46.510;6.686;2022-12-24T13:50:40;96544.25;;;10.92;100.00
57594;BME280;43423;46.510;6.686;2022-12-24T13:53:42;96542.25;;;10.93;100.00
57594;BME280;43423;46.510;6.686;2022-12-24T13:58:43;96538.19;;;10.88;100.00
57594;BME280;43423;46.510;6.686;2022-12-24T14:01:12;96531.66;;;10.85;100.00
57594;BME280;43423;46.510;6.686;2022-12-24T14:03:55;96548.69;;;10.89;100.00
57594;BME280;43423;46.510;6.686;2022-12-24T14:06:31;96543.88;;;10.84;100.00
57594;BME280;43423;46.510;6.686;2022-12-24T14:09:14;96540.88;;;10.82;100.00
57594;BME280;43423;46.510;6.686;2022-12-24T14:14:26;96547.31;;;10.79;100.00
57594;BME280;43423;46.510;6.686;2022-12-24T14:16:54;96547.19;;;10.88;100.00
57594;BME280;43423;46.510;6.686;2022-12-24T14:19:24;96541.78;;;10.94;100.00
57594;BME280;43423;46.510;6.686;2022-12-24T14:21:55;96541.00;;;10.94;100.00
57594;BME280;43423;46.510;6.686;2022-12-24T14:24:32;96548.13;;;11.00;100.00
57594;BME280;43423;46.510;6.686;2022-12-24T14:27:07;96544.31;;;10.98;100.00
57594;BME280;43423;46.510;6.686;2022-12-24T14:29:45;96542.13;;;11.02;100.00
57594;BME280;43423;46.510;6.686;2022-12-24T14:32:15;96546.03;;;10.95;100.00
57594;BME280;43423;46.510;6.686;2022-12-24T14:34:41;96508.44;;;10.72;100.00
57594;BME280;43423;46.510;6.686;2022-12-24T14:37:09;96534.66;;;10.87;100.00
57594;BME280;43423;46.510;6.686;2022-12-24T14:39:43;96551.81;;;10.97;100.00
57594;BME280;43423;46.510;6.686;2022-12-24T14:50:29;96554.91;;;10.70;100.00
57594;BME280;43423;46.510;6.686;2022-12-24T14:53:14;96556.91;;;10.69;100.00
57594;BME280;43423;46.510;6.686;2022-12-24T14:55:46;96547.34;;;10.50;100.00